sensor_id;sensor_type;location;lat;lon;timestamp;pressure;altitude;pressure_sealevel;temperature;humidity
56272;BME280;42177;48.914;18.160;2023-04-27T00:02:57;987.2;;;6.8;74.1
56272;BME280;42177;48.914;18.160;2023-04-27T00:07:56;987.2;;;6.6;74.5
56272;BME280;42177;48.914;18.160;2023-04-27T00:12:57;987.2;;;6.6;74.5
56272;BME280;42177;48.914;18.160;2023-04-27T00:17:57;987.2;;;6.4;74.4
56272;BME280;42177;48.914;18.160;2023-04-27T00:22:57;987.2;;;6.4;74.4
56272;BME280;42177;48.914;18.160;2023-04-27T00:27:56;987.3;;;7;72.7
56272;BME280;42177;48.914;18.160;2023-04-27T00:32:57;987.3;;;7;72.7
56272;BME280;42177;48.914;18.160;2023-04-27T00:37:57;987.3;;;6.3;75.1
56272;BME280;42177;48.914;18.160;2023-04-27T00:42:57;987.3;;;6.3;75.1
56272;BME280;42177;48.914;18.160;2023-04-27T00:47:57;987.5;;;6.4;75.2
56272;BME280;42177;48.914;18.160;2023-04-27T00:52:56;987.5;;;6.4;75.2
56272;BME280;42177;48.914;18.160;2023-04-27T00:57:56;987.3;;;6.1;76
56272;BME280;42177;48.914;18.160;2023-04-27T01:02:57;987.3;;;6.1;76
56272;BME280;42177;48.914;18.160;2023-04-27T01:07:57;987.3;;;6.2;76
56272;BME280;42177;48.914;18.160;2023-04-27T01:12:57;987.3;;;6.2;76
56272;BME280;42177;48.914;18.160;2023-04-27T01:17:57;987.4;;;6.2;75.4
56272;BME280;42177;48.914;18.160;2023-04-27T01:22:57;987.4;;;6.2;75.4
56272;BME280;42177;48.914;18.160;2023-04-27T01:27:57;987.5;;;5.6;77.9
56272;BME280;42177;48.914;18.160;2023-04-27T01:32:57;987.5;;;5.6;77.9
56272;BME280;42177;48.914;18.160;2023-04-27T01:37:57;987.6;;;5.9;78
56272;BME280;42177;48.914;18.160;2023-04-27T01:42:57;987.6;;;5.9;78
56272;BME280;42177;48.914;18.160;2023-04-27T01:47:57;987.6;;;5.5;78.4
56272;BME280;42177;48.914;18.160;2023-04-27T01:52:57;987.6;;;5.5;78.4
56272;BME280;42177;48.914;18.160;2023-04-27T01:57:57;987.6;;;5.7;78.2
56272;BME280;42177;48.914;18.160;2023-04-27T02:02:57;987.6;;;5.7;78.2
56272;BME280;42177;48.914;18.160;2023-04-27T02:07:56;987.7;;;5.7;78.2
56272;BME280;42177;48.914;18.160;2023-04-27T02:12:57;987.7;;;5.7;78.2
56272;BME280;42177;48.914;18.160;2023-04-27T02:17:57;987.7;;;5.7;77.9
56272;BME280;42177;48.914;18.160;2023-04-27T02:22:57;987.7;;;5.7;77.9
56272;BME280;42177;48.914;18.160;2023-04-27T02:27:57;987.8;;;5.3;80.1
56272;BME280;42177;48.914;18.160;2023-04-27T02:32:57;987.8;;;5.3;80.1
56272;BME280;42177;48.914;18.160;2023-04-27T02:37:57;987.9;;;5.3;80.5
56272;BME280;42177;48.914;18.160;2023-04-27T02:42:57;987.9;;;5.3;80.5
56272;BME280;42177;48.914;18.160;2023-04-27T02:47:56;987.9;;;5.1;81
56272;BME280;42177;48.914;18.160;2023-04-27T02:52:57;987.9;;;5.1;81
56272;BME280;42177;48.914;18.160;2023-04-27T02:57:57;987.9;;;5.1;80.6
56272;BME280;42177;48.914;18.160;2023-04-27T03:02:57;987.9;;;5.1;80.6
56272;BME280;42177;48.914;18.160;2023-04-27T03:07:57;988;;;5.2;81.2
56272;BME280;42177;48.914;18.160;2023-04-27T03:12:57;988;;;5.2;81.2
56272;BME280;42177;48.914;18.160;2023-04-27T03:17:56;988;;;4.6;82.8
56272;BME280;42177;48.914;18.160;2023-04-27T03:22:57;988;;;4.6;82.8
56272;BME280;42177;48.914;18.160;2023-04-27T03:27:57;988.1;;;4.8;82.3
56272;BME280;42177;48.914;18.160;2023-04-27T03:32:57;988.1;;;4.8;82.3
56272;BME280;42177;48.914;18.160;2023-04-27T03:37:57;988.2;;;4.6;83.3
56272;BME280;42177;48.914;18.160;2023-04-27T03:42:57;988.2;;;4.6;83.3
56272;BME280;42177;48.914;18.160;2023-04-27T03:47:57;988.2;;;5;81.6
56272;BME280;42177;48.914;18.160;2023-04-27T03:52:57;988.2;;;5;81.6
56272;BME280;42177;48.914;18.160;2023-04-27T03:57:57;988.2;;;4.4;83.3
56272;BME280;42177;48.914;18.160;2023-04-27T04:02:57;988.2;;;4.4;83.3
56272;BME280;42177;48.914;18.160;2023-04-27T04:07:56;988.3;;;4.4;83.3
56272;BME280;42177;48.914;18.160;2023-04-27T04:12:57;988.3;;;4.4;83.3
56272;BME280;42177;48.914;18.160;2023-04-27T04:17:56;988.3;;;4.4;83.6
56272;BME280;42177;48.914;18.160;2023-04-27T04:22:57;988.3;;;4.4;83.6
56272;BME280;42177;48.914;18.160;2023-04-27T04:27:57;988.3;;;4.3;83.2
56272;BME280;42177;48.914;18.160;2023-04-27T04:32:57;988.3;;;4.3;83.2
56272;BME280;42177;48.914;18.160;2023-04-27T04:37:57;988.4;;;4.9;81.5
56272;BME280;42177;48.914;18.160;2023-04-27T04:42:57;988.4;;;4.9;81.5
56272;BME280;42177;48.914;18.160;2023-04-27T04:47:57;988.5;;;4.9;82.1
56272;BME280;42177;48.914;18.160;2023-04-27T04:52:57;988.5;;;4.9;82.1
56272;BME280;42177;48.914;18.160;2023-04-27T04:57:57;988.6;;;5.1;81
56272;BME280;42177;48.914;18.160;2023-04-27T05:02:57;988.6;;;5.1;81
56272;BME280;42177;48.914;18.160;2023-04-27T05:07:57;988.6;;;5.5;79.8
56272;BME280;42177;48.914;18.160;2023-04-27T05:12:57;988.6;;;5.5;79.8
56272;BME280;42177;48.914;18.160;2023-04-27T05:17:57;988.7;;;5.3;80.1
56272;BME280;42177;48.914;18.160;2023-04-27T05:22:57;988.7;;;5.3;80.1
56272;BME280;42177;48.914;18.160;2023-04-27T05:27:57;988.8;;;5.4;80.5
56272;BME280;42177;48.914;18.160;2023-04-27T05:32:57;988.8;;;5.4;80.5
56272;BME280;42177;48.914;18.160;2023-04-27T05:37:57;988.7;;;6.7;75.6
56272;BME280;42177;48.914;18.160;2023-04-27T05:42:57;988.7;;;6.7;75.6
56272;BME280;42177;48.914;18.160;2023-04-27T05:47:57;988.8;;;6.6;74.7
56272;BME280;42177;48.914;18.160;2023-04-27T05:52:57;988.8;;;6.6;74.7
56272;BME280;42177;48.914;18.160;2023-04-27T05:57:57;988.8;;;6.4;76.3
56272;BME280;42177;48.914;18.160;2023-04-27T06:02:57;988.8;;;6.4;76.3
56272;BME280;42177;48.914;18.160;2023-04-27T06:07:57;988.9;;;6.7;74.6
56272;BME280;42177;48.914;18.160;2023-04-27T06:12:57;988.9;;;6.7;74.6
56272;BME280;42177;48.914;18.160;2023-04-27T06:17:57;989;;;6.8;72.5
56272;BME280;42177;48.914;18.160;2023-04-27T06:22:57;989;;;6.8;72.5
56272;BME280;42177;48.914;18.160;2023-04-27T06:27:57;989;;;7.9;68.3
56272;BME280;42177;48.914;18.160;2023-04-27T06:32:57;989;;;7.9;68.3
56272;BME280;42177;48.914;18.160;2023-04-27T06:37:57;989;;;8.8;66
56272;BME280;42177;48.914;18.160;2023-04-27T06:42:57;989;;;8.8;66
56272;BME280;42177;48.914;18.160;2023-04-27T06:47:57;989;;;9;68
56272;BME280;42177;48.914;18.160;2023-04-27T06:52:57;989;;;9;68
56272;BME280;42177;48.914;18.160;2023-04-27T06:57:57;989;;;9.1;71
56272;BME280;42177;48.914;18.160;2023-04-27T07:02:57;989;;;9.1;71
56272;BME280;42177;48.914;18.160;2023-04-27T07:07:57;989;;;9.3;67.4
56272;BME280;42177;48.914;18.160;2023-04-27T07:12:57;989;;;9.3;67.4
56272;BME280;42177;48.914;18.160;2023-04-27T07:17:57;989;;;10.7;64
56272;BME280;42177;48.914;18.160;2023-04-27T07:22:57;989;;;10.7;64
56272;BME280;42177;48.914;18.160;2023-04-27T07:27:57;989;;;10.6;57.6
56272;BME280;42177;48.914;18.160;2023-04-27T07:32:57;989;;;10.6;57.6
56272;BME280;42177;48.914;18.160;2023-04-27T07:37:58;988.9;;;10.7;53.8
56272;BME280;42177;48.914;18.160;2023-04-27T07:42:57;988.9;;;10.7;53.8
56272;BME280;42177;48.914;18.160;2023-04-27T07:47:57;989;;;11;52.8
56272;BME280;42177;48.914;18.160;2023-04-27T07:52:57;989;;;11;52.8
56272;BME280;42177;48.914;18.160;2023-04-27T07:57:57;989;;;11.6;52.6
56272;BME280;42177;48.914;18.160;2023-04-27T08:02:57;989;;;11.6;52.6
56272;BME280;42177;48.914;18.160;2023-04-27T08:07:57;989;;;11.4;49.9
56272;BME280;42177;48.914;18.160;2023-04-27T08:12:57;989;;;11.4;49.9
56272;BME280;42177;48.914;18.160;2023-04-27T08:17:57;989;;;12.8;44.2
56272;BME280;42177;48.914;18.160;2023-04-27T08:22:57;989;;;12.8;44.2
56272;BME280;42177;48.914;18.160;2023-04-27T08:27:57;989;;;12.5;42.6
56272;BME280;42177;48.914;18.160;2023-04-27T08:32:57;989;;;12.5;42.6
56272;BME280;42177;48.914;18.160;2023-04-27T08:37:57;988.9;;;13.5;41.7
56272;BME280;42177;48.914;18.160;2023-04-27T08:42:57;988.9;;;13.5;41.7
56272;BME280;42177;48.914;18.160;2023-04-27T08:47:57;988.9;;;13.5;38.2
56272;BME280;42177;48.914;18.160;2023-04-27T08:52:57;988.9;;;13.5;38.2
56272;BME280;42177;48.914;18.160;2023-04-27T08:57:57;988.9;;;12.9;38.1
56272;BME280;42177;48.914;18.160;2023-04-27T09:02:57;988.9;;;12.9;38.1
56272;BME280;42177;48.914;18.160;2023-04-27T09:07:57;988.9;;;12.7;39.4
56272;BME280;42177;48.914;18.160;2023-04-27T09:12:57;988.9;;;12.7;39.4
56272;BME280;42177;48.914;18.160;2023-04-27T09:17:57;988.9;;;12.2;38.4
56272;BME280;42177;48.914;18.160;2023-04-27T09:22:57;988.9;;;12.2;38.4
56272;BME280;42177;48.914;18.160;2023-04-27T09:27:57;988.9;;;12.7;39.9
56272;BME280;42177;48.914;18.160;2023-04-27T09:32:59;988.9;;;12.7;39.9
56272;BME280;42177;48.914;18.160;2023-04-27T09:37:57;988.9;;;12.7;39.1
56272;BME280;42177;48.914;18.160;2023-04-27T09:42:58;988.9;;;12.7;39.1
56272;BME280;42177;48.914;18.160;2023-04-27T09:47:57;988.9;;;12.8;39.8
56272;BME280;42177;48.914;18.160;2023-04-27T09:52:57;988.9;;;12.8;39.8
56272;BME280;42177;48.914;18.160;2023-04-27T09:57:59;988.9;;;12;40.7
56272;BME280;42177;48.914;18.160;2023-04-27T10:03:01;988.9;;;12;40.7
56272;BME280;42177;48.914;18.160;2023-04-27T10:07:57;988.9;;;12.1;41.3
56272;BME280;42177;48.914;18.160;2023-04-27T10:12:59;988.9;;;12.1;41.3
56272;BME280;42177;48.914;18.160;2023-04-27T10:18:02;988.8;;;13.1;40.3
56272;BME280;42177;48.914;18.160;2023-04-27T10:22:57;988.8;;;13.1;40.3
56272;BME280;42177;48.914;18.160;2023-04-27T10:27:57;988.6;;;14.3;36.6
56272;BME280;42177;48.914;18.160;2023-04-27T10:32:57;988.6;;;14.3;36.6
56272;BME280;42177;48.914;18.160;2023-04-27T10:38:03;988.5;;;13.7;38.3
56272;BME280;42177;48.914;18.160;2023-04-27T10:42:57;988.5;;;13.7;38.3
56272;BME280;42177;48.914;18.160;2023-04-27T10:47:57;988.7;;;13.6;36.6
56272;BME280;42177;48.914;18.160;2023-04-27T10:52:58;988.7;;;13.6;36.6
56272;BME280;42177;48.914;18.160;2023-04-27T10:57:57;988.7;;;13.3;37
56272;BME280;42177;48.914;18.160;2023-04-27T11:03:07;988.7;;;13.3;37
56272;BME280;42177;48.914;18.160;2023-04-27T11:08:04;988.5;;;15.7;35.1
56272;BME280;42177;48.914;18.160;2023-04-27T11:12:57;988.5;;;15.7;35.1
56272;BME280;42177;48.914;18.160;2023-04-27T11:18:03;988.4;;;14;36.1
56272;BME280;42177;48.914;18.160;2023-04-27T11:22:57;988.4;;;14;36.1
56272;BME280;42177;48.914;18.160;2023-04-27T11:27:57;988.6;;;15.6;33.1
56272;BME280;42177;48.914;18.160;2023-04-27T11:32:57;988.6;;;15.6;33.1
56272;BME280;42177;48.914;18.160;2023-04-27T11:37:57;988.5;;;13.8;34.7
56272;BME280;42177;48.914;18.160;2023-04-27T11:42:57;988.5;;;13.8;34.7
56272;BME280;42177;48.914;18.160;2023-04-27T11:47:57;988.3;;;15.7;32.5
56272;BME280;42177;48.914;18.160;2023-04-27T11:52:59;988.3;;;15.7;32.5
56272;BME280;42177;48.914;18.160;2023-04-27T11:57:57;988.3;;;16.7;33.9
56272;BME280;42177;48.914;18.160;2023-04-27T12:02:57;988.3;;;16.7;33.9
56272;BME280;42177;48.914;18.160;2023-04-27T12:07:57;988.4;;;15;36.3
56272;BME280;42177;48.914;18.160;2023-04-27T12:12:57;988.4;;;15;36.3
56272;BME280;42177;48.914;18.160;2023-04-27T12:17:57;988.3;;;15;35.7
56272;BME280;42177;48.914;18.160;2023-04-27T12:22:57;988.3;;;15;35.7
56272;BME280;42177;48.914;18.160;2023-04-27T12:27:57;988.3;;;16.8;32.3
56272;BME280;42177;48.914;18.160;2023-04-27T12:32:57;988.3;;;16.8;32.3
56272;BME280;42177;48.914;18.160;2023-04-27T12:37:57;988.3;;;15.2;31.9
56272;BME280;42177;48.914;18.160;2023-04-27T12:42:57;988.3;;;15.2;31.9
56272;BME280;42177;48.914;18.160;2023-04-27T12:47:57;988.2;;;14.5;34
56272;BME280;42177;48.914;18.160;2023-04-27T12:52:57;988.2;;;14.5;34
56272;BME280;42177;48.914;18.160;2023-04-27T12:57:57;988.1;;;15.3;34.2
56272;BME280;42177;48.914;18.160;2023-04-27T13:02:57;988.1;;;15.3;34.2
56272;BME280;42177;48.914;18.160;2023-04-27T13:07:57;988.1;;;14.4;33.6
56272;BME280;42177;48.914;18.160;2023-04-27T13:12:57;988.1;;;14.4;33.6
56272;BME280;42177;48.914;18.160;2023-04-27T13:17:57;988.1;;;14.4;33
56272;BME280;42177;48.914;18.160;2023-04-27T13:22:57;988.1;;;14.4;33
56272;BME280;42177;48.914;18.160;2023-04-27T13:27:57;988.1;;;14.2;34.1
56272;BME280;42177;48.914;18.160;2023-04-27T13:32:57;988.1;;;14.2;34.1
56272;BME280;42177;48.914;18.160;2023-04-27T13:37:57;988.3;;;14;35.7
56272;BME280;42177;48.914;18.160;2023-04-27T13:42:57;988.3;;;14;35.7
56272;BME280;42177;48.914;18.160;2023-04-27T13:47:57;988.3;;;14.6;34.5
56272;BME280;42177;48.914;18.160;2023-04-27T13:52:57;988.3;;;14.6;34.5
56272;BME280;42177;48.914;18.160;2023-04-27T13:57:57;988.2;;;16.4;35
56272;BME280;42177;48.914;18.160;2023-04-27T14:02:57;988.2;;;16.4;35
56272;BME280;42177;48.914;18.160;2023-04-27T14:07:57;988.2;;;16.3;31.1
56272;BME280;42177;48.914;18.160;2023-04-27T14:12:57;988.2;;;16.3;31.1
56272;BME280;42177;48.914;18.160;2023-04-27T14:17:57;988.3;;;16.7;31.5
56272;BME280;42177;48.914;18.160;2023-04-27T14:22:57;988.3;;;16.7;31.5
56272;BME280;42177;48.914;18.160;2023-04-27T14:27:57;988.3;;;18;31.8
56272;BME280;42177;48.914;18.160;2023-04-27T14:32:57;988.3;;;18;31.8
56272;BME280;42177;48.914;18.160;2023-04-27T14:37:57;988.2;;;15.3;34
56272;BME280;42177;48.914;18.160;2023-04-27T14:42:57;988.2;;;15.3;34
56272;BME280;42177;48.914;18.160;2023-04-27T14:47:57;988.3;;;14.8;33.9
56272;BME280;42177;48.914;18.160;2023-04-27T14:52:57;988.3;;;14.8;33.9
56272;BME280;42177;48.914;18.160;2023-04-27T14:57:57;988.3;;;15.9;33.7
56272;BME280;42177;48.914;18.160;2023-04-27T15:02:57;988.3;;;15.9;33.7
56272;BME280;42177;48.914;18.160;2023-04-27T15:07:57;988.3;;;16;31.5
56272;BME280;42177;48.914;18.160;2023-04-27T15:12:57;988.3;;;16;31.5
56272;BME280;42177;48.914;18.160;2023-04-27T15:17:57;988.2;;;15.3;33.3
56272;BME280;42177;48.914;18.160;2023-04-27T15:22:57;988.2;;;15.3;33.3
56272;BME280;42177;48.914;18.160;2023-04-27T15:27:57;988.3;;;16.7;32.2
56272;BME280;42177;48.914;18.160;2023-04-27T15:32:57;988.3;;;16.7;32.2
56272;BME280;42177;48.914;18.160;2023-04-27T15:37:57;988.2;;;16.7;31.7
56272;BME280;42177;48.914;18.160;2023-04-27T15:42:57;988.2;;;16.7;31.7
56272;BME280;42177;48.914;18.160;2023-04-27T15:47:57;988.2;;;16.2;31.7
56272;BME280;42177;48.914;18.160;2023-04-27T15:52:57;988.2;;;16.2;31.7
56272;BME280;42177;48.914;18.160;2023-04-27T15:57:57;988.1;;;17;30.7
56272;BME280;42177;48.914;18.160;2023-04-27T16:02:57;988.1;;;17;30.7
56272;BME280;42177;48.914;18.160;2023-04-27T16:07:57;988.2;;;16.9;31.3
56272;BME280;42177;48.914;18.160;2023-04-27T16:12:57;988.2;;;16.9;31.3
56272;BME280;42177;48.914;18.160;2023-04-27T16:17:57;988.2;;;16;31.5
56272;BME280;42177;48.914;18.160;2023-04-27T16:22:57;988.2;;;16;31.5
56272;BME280;42177;48.914;18.160;2023-04-27T16:27:57;988.2;;;17.4;30.2
56272;BME280;42177;48.914;18.160;2023-04-27T16:32:57;988.2;;;17.4;30.2
56272;BME280;42177;48.914;18.160;2023-04-27T16:37:57;988.2;;;15.5;32.3
56272;BME280;42177;48.914;18.160;2023-04-27T16:42:57;988.2;;;15.5;32.3
56272;BME280;42177;48.914;18.160;2023-04-27T16:47:57;988.2;;;15.4;32.6
56272;BME280;42177;48.914;18.160;2023-04-27T16:53:02;988.2;;;15.4;32.6
56272;BME280;42177;48.914;18.160;2023-04-27T16:57:57;988.3;;;15.4;33.2
56272;BME280;42177;48.914;18.160;2023-04-27T17:02:57;988.3;;;15.4;33.2
56272;BME280;42177;48.914;18.160;2023-04-27T17:07:57;988.3;;;15.4;34
56272;BME280;42177;48.914;18.160;2023-04-27T17:12:57;988.3;;;15.4;34
56272;BME280;42177;48.914;18.160;2023-04-27T17:17:57;988.4;;;15;34.4
56272;BME280;42177;48.914;18.160;2023-04-27T17:22:57;988.4;;;15;34.4
56272;BME280;42177;48.914;18.160;2023-04-27T17:27:57;988.4;;;14.3;35.3
56272;BME280;42177;48.914;18.160;2023-04-27T17:32:57;988.4;;;14.3;35.3
56272;BME280;42177;48.914;18.160;2023-04-27T17:37:57;988.4;;;13.7;38.6
56272;BME280;42177;48.914;18.160;2023-04-27T17:42:57;988.4;;;13.7;38.6
56272;BME280;42177;48.914;18.160;2023-04-27T17:47:57;988.4;;;13.2;40.6
56272;BME280;42177;48.914;18.160;2023-04-27T17:52:57;988.4;;;13.2;40.6
56272;BME280;42177;48.914;18.160;2023-04-27T17:57:57;988.5;;;12.8;42.2
56272;BME280;42177;48.914;18.160;2023-04-27T18:02:57;988.5;;;12.8;42.2
56272;BME280;42177;48.914;18.160;2023-04-27T18:07:57;988.7;;;12.3;45.1
56272;BME280;42177;48.914;18.160;2023-04-27T18:12:57;988.7;;;12.3;45.1
56272;BME280;42177;48.914;18.160;2023-04-27T18:17:57;988.6;;;11.9;45.9
56272;BME280;42177;48.914;18.160;2023-04-27T18:22:57;988.6;;;11.9;45.9
56272;BME280;42177;48.914;18.160;2023-04-27T18:27:57;988.7;;;11.7;47.3
56272;BME280;42177;48.914;18.160;2023-04-27T18:32:57;988.7;;;11.7;47.3
56272;BME280;42177;48.914;18.160;2023-04-27T18:37:57;988.8;;;11.5;46.3
56272;BME280;42177;48.914;18.160;2023-04-27T18:42:57;988.8;;;11.5;46.3
56272;BME280;42177;48.914;18.160;2023-04-27T18:47:57;989;;;10.7;47.9
56272;BME280;42177;48.914;18.160;2023-04-27T18:52:57;989;;;10.7;47.9
56272;BME280;42177;48.914;18.160;2023-04-27T18:57:57;989;;;10.5;48.7
56272;BME280;42177;48.914;18.160;2023-04-27T19:02:57;989;;;10.5;48.7
56272;BME280;42177;48.914;18.160;2023-04-27T19:07:57;989.1;;;10.2;49.4
56272;BME280;42177;48.914;18.160;2023-04-27T19:12:57;989.1;;;10.2;49.4
56272;BME280;42177;48.914;18.160;2023-04-27T19:17:57;989.2;;;10.1;49.5
56272;BME280;42177;48.914;18.160;2023-04-27T19:22:57;989.2;;;10.1;49.5
56272;BME280;42177;48.914;18.160;2023-04-27T19:27:57;989.3;;;10;50.1
56272;BME280;42177;48.914;18.160;2023-04-27T19:32:57;989.3;;;10;50.1
56272;BME280;42177;48.914;18.160;2023-04-27T19:37:57;989.4;;;10.2;51
56272;BME280;42177;48.914;18.160;2023-04-27T19:42:57;989.4;;;10.2;51
56272;BME280;42177;48.914;18.160;2023-04-27T19:47:57;989.4;;;9.5;52.4
56272;BME280;42177;48.914;18.160;2023-04-27T19:52:57;989.4;;;9.5;52.4
56272;BME280;42177;48.914;18.160;2023-04-27T19:57:57;989.4;;;9.2;53.3
56272;BME280;42177;48.914;18.160;2023-04-27T20:02:57;989.4;;;9.2;53.3
56272;BME280;42177;48.914;18.160;2023-04-27T20:07:57;989.4;;;8.9;53.7
56272;BME280;42177;48.914;18.160;2023-04-27T20:12:57;989.4;;;8.9;53.7
56272;BME280;42177;48.914;18.160;2023-04-27T20:17:57;989.5;;;8.8;54.9
56272;BME280;42177;48.914;18.160;2023-04-27T20:22:57;989.5;;;8.8;54.9
56272;BME280;42177;48.914;18.160;2023-04-27T20:27:57;989.6;;;8.7;55.9
56272;BME280;42177;48.914;18.160;2023-04-27T20:32:57;989.6;;;8.7;55.9
56272;BME280;42177;48.914;18.160;2023-04-27T20:37:57;989.8;;;8.7;55.1
56272;BME280;42177;48.914;18.160;2023-04-27T20:42:57;989.8;;;8.7;55.1
56272;BME280;42177;48.914;18.160;2023-04-27T20:47:57;989.8;;;8.6;56.9
56272;BME280;42177;48.914;18.160;2023-04-27T20:52:57;989.8;;;8.6;56.9
56272;BME280;42177;48.914;18.160;2023-04-27T20:57:57;989.8;;;8.7;56.7
56272;BME280;42177;48.914;18.160;2023-04-27T21:02:57;989.8;;;8.7;56.7
56272;BME280;42177;48.914;18.160;2023-04-27T21:07:57;989.8;;;8.3;58.9
56272;BME280;42177;48.914;18.160;2023-04-27T21:12:57;989.8;;;8.3;58.9
56272;BME280;42177;48.914;18.160;2023-04-27T21:17:57;989.8;;;8.1;60
56272;BME280;42177;48.914;18.160;2023-04-27T21:22:57;989.8;;;8.1;60
56272;BME280;42177;48.914;18.160;2023-04-27T21:27:57;989.8;;;7.6;61.2
56272;BME280;42177;48.914;18.160;2023-04-27T21:32:57;989.8;;;7.6;61.2
56272;BME280;42177;48.914;18.160;2023-04-27T21:37:57;990;;;7.8;61.3
56272;BME280;42177;48.914;18.160;2023-04-27T21:42:57;990;;;7.8;61.3
56272;BME280;42177;48.914;18.160;2023-04-27T21:47:57;989.9;;;7.7;61.5
56272;BME280;42177;48.914;18.160;2023-04-27T21:52:57;989.9;;;7.7;61.5
56272;BME280;42177;48.914;18.160;2023-04-27T21:57:57;990;;;7.4;63.1
56272;BME280;42177;48.914;18.160;2023-04-27T22:02:57;990;;;7.4;63.1
56272;BME280;42177;48.914;18.160;2023-04-27T22:07:57;990.1;;;7.5;62.7
56272;BME280;42177;48.914;18.160;2023-04-27T22:12:57;990.1;;;7.5;62.7
56272;BME280;42177;48.914;18.160;2023-04-27T22:17:57;990.1;;;7.1;64.4
56272;BME280;42177;48.914;18.160;2023-04-27T22:22:57;990.1;;;7.1;64.4
56272;BME280;42177;48.914;18.160;2023-04-27T22:27:57;990;;;7;64.9
56272;BME280;42177;48.914;18.160;2023-04-27T22:32:57;990;;;7;64.9
56272;BME280;42177;48.914;18.160;2023-04-27T22:37:57;990.2;;;7.1;64.1
56272;BME280;42177;48.914;18.160;2023-04-27T22:42:57;990.2;;;7.1;64.1
56272;BME280;42177;48.914;18.160;2023-04-27T22:47:57;990.2;;;6.8;64.9
56272;BME280;42177;48.914;18.160;2023-04-27T22:52:57;990.2;;;6.8;64.9
56272;BME280;42177;48.914;18.160;2023-04-27T22:57:57;990.2;;;6.3;67
56272;BME280;42177;48.914;18.160;2023-04-27T23:02:57;990.2;;;6.3;67
56272;BME280;42177;48.914;18.160;2023-04-27T23:07:57;990.3;;;6.4;67.8
56272;BME280;42177;48.914;18.160;2023-04-27T23:12:57;990.3;;;6.4;67.8
56272;BME280;42177;48.914;18.160;2023-04-27T23:17:57;990.1;;;6.3;69.9
56272;BME280;42177;48.914;18.160;2023-04-27T23:22:57;990.1;;;6.3;69.9
56272;BME280;42177;48.914;18.160;2023-04-27T23:27:57;990.2;;;6.8;67.5
56272;BME280;42177;48.914;18.160;2023-04-27T23:32:57;990.2;;;6.8;67.5
56272;BME280;42177;48.914;18.160;2023-04-27T23:37:57;990.3;;;6.3;68.8
56272;BME280;42177;48.914;18.160;2023-04-27T23:42:57;990.3;;;6.3;68.8
56272;BME280;42177;48.914;18.160;2023-04-27T23:47:57;990.2;;;6.2;68.9
56272;BME280;42177;48.914;18.160;2023-04-27T23:52:57;990.2;;;6.2;68.9
56272;BME280;42177;48.914;18.160;2023-04-27T23:57:57;990.2;;;6.1;69.4
